Kevleen K — WDD4913 — position and weather

sailwx.info

Track history (hours):
 
Tides and Currents Weather Stations Pressure Air Temp Water Temp Dewpoint Dewpoint Depression Visibility Wind Speed Wind Dir Waves Ship Positions

Kevleen K

Owner: Kevleen K LLC, Edmonds, WA. More information available from US FCC via Universal Licensing System and Coast Guard Vessel Documentation Center.

Last reported at 2015-Oct-02 20:14 UTC. Time now 2016-Aug-24 16:15 UTC.
Position N 48°50' W 126°28'.
Warning: this ship's position is months out of date.

Length 32 m; draft 4.2 m.

Type: Fishing. MMSI: 367151060.

Date/timePositionNaut miles runAvg speedWind from/ knotsBaromVisibWave heightAir tempDewpointWater temp
2015-Oct-02 20:14N 48°50' W 126°28'5 5.9
2015-Oct-02 19:26N 48°48' W 126°21'6 6.3
2015-Oct-02 18:33N 48°46' W 126°14'7 7.4
2015-Oct-02 17:33N 48°42' W 126°04'8 8.0
2015-Oct-02 16:33N 48°39' W 125°53'8 8.0
2015-Oct-02 15:33N 48°35' W 125°42'9 8.5
2015-Oct-02 14:33N 48°33' W 125°30'10 9.3
2015-Oct-02 13:28N 48°32' W 125°14'66 9.6
2015-Oct-02 06:33N 48°17' W 123°38'411.9
2015-Oct-02 06:12N 48°15' W 123°31'711.1
2015-Oct-02 05:32N 48°14' W 123°21'411.2
2015-Oct-02 05:12N 48°13' W 123°15'710.6
2015-Oct-02 04:33N 48°13' W 123°05'1110.1
2015-Oct-02 03:27N 48°11' W 122°48'16 8.3
2015-Oct-02 01:33N 47°59' W 122°34'8 8.2
2015-Oct-02 00:33N 47°52' W 122°28'2 9.1
2015-Oct-02 00:22N 47°50' W 122°27'8 9.4
2015-Oct-01 23:33N 47°42' W 122°25'0 8.6
2015-Oct-01 23:32N 47°42' W 122°25'2 1.8
2015-Oct-01 22:33N 47°41' W 122°25'0 0.0
2015-Oct-01 22:31N 47°41' W 122°25'0 0.0
2015-Oct-01 21:33N 47°41' W 122°25'0 0.0
2015-Oct-01 21:31N 47°41' W 122°25'0 0.0
2015-Oct-01 20:33N 47°41' W 122°25'0 0.0
2015-Oct-01 20:31N 47°41' W 122°25'0 0.0
2015-Oct-01 19:33N 47°41' W 122°25'0 0.0
2015-Oct-01 19:31N 47°41' W 122°25'1 1.5
2015-Oct-01 18:33N 47°42' W 122°25'1 8.2
2015-Oct-01 18:26N 47°43' W 122°25'1 0.7
2015-Oct-01 17:33N 47°43' W 122°24'0 6.6
2015-Oct-01 17:31N 47°43' W 122°24'3 2.6
2015-Oct-01 16:33N 47°41' W 122°25'0 1.7
2015-Oct-01 16:31N 47°41' W 122°26'1 0.8
2015-Oct-01 15:33N 47°41' W 122°25'0 0.0
2015-Oct-01 15:31N 47°41' W 122°25'1 1.0
2015-Oct-01 14:33N 47°40' W 122°24'0 0.1
2015-Oct-01 14:31N 47°40' W 122°24'1 0.8
2015-Oct-01 13:33N 47°40' W 122°23'0 0.0
2015-Oct-01 13:31N 47°40' W 122°23'0 0.0
2015-Oct-01 12:33N 47°40' W 122°23'0 0.1
2015-Oct-01 12:31N 47°40' W 122°23'0 0.0
2015-Oct-01 11:33N 47°40' W 122°23'0 0.1
2015-Oct-01 11:31N 47°40' W 122°23'0 0.0
2015-Oct-01 10:33N 47°40' W 122°23'0 0.0
2015-Oct-01 10:13N 47°40' W 122°23'0 0.0
2015-Oct-01 09:33N 47°40' W 122°23'0 0.0
2015-Oct-01 09:33N 47°40' W 122°23'0 0.0
2015-Oct-01 08:33N 47°40' W 122°23'0 0.0
2015-Oct-01 08:33N 47°40' W 122°23'0 0.0
2015-Oct-01 07:33N 47°40' W 122°23'0 0.0
2015-Oct-01 07:33N 47°40' W 122°23'0 0.0
2015-Oct-01 06:33N 47°40' W 122°23'0 0.0
2015-Oct-01 06:33N 47°40' W 122°23'0 0.0
2015-Oct-01 05:33N 47°40' W 122°23'0 0.0
2015-Oct-01 05:33N 47°40' W 122°23'0 0.0
2015-Oct-01 04:33N 47°40' W 122°23'0 0.0
2015-Oct-01 04:32N 47°40' W 122°23'0 0.0
2015-Oct-01 03:33N 47°40' W 122°23'0 0.0
2015-Oct-01 03:32N 47°40' W 122°23'0 0.0
2015-Oct-01 02:33N 47°40' W 122°23'0 0.0
2015-Oct-01 02:32N 47°40' W 122°23'0 0.0
2015-Oct-01 01:33N 47°40' W 122°23'0 0.0
2015-Oct-01 01:32N 47°40' W 122°23'0 0.0
2015-Oct-01 00:33N 47°40' W 122°23'0 0.0
2015-Oct-01 00:32N 47°40' W 122°23'0 0.0
2015-Sep-30 23:33N 47°40' W 122°23'0 0.3
2015-Sep-30 23:32N 47°40' W 122°23'0 0.0
2015-Sep-30 22:34N 47°40' W 122°23'0 0.0
2015-Sep-30 22:31N 47°40' W 122°23'0 0.0
2015-Sep-30 21:33N 47°40' W 122°23'0 0.0
2015-Sep-30 21:31N 47°40' W 122°23'1 0.6
2015-Sep-30 20:33N 47°40' W 122°23'0 0.0
2015-Sep-30 20:32N 47°40' W 122°23'0 0.0
2015-Sep-30 19:33N 47°40' W 122°23'0 0.0
2015-Sep-30 19:31N 47°40' W 122°23'0 0.0
2015-Sep-30 18:34N 47°40' W 122°23'0 0.5
2015-Sep-30 18:05N 47°40' W 122°23'0 0.0
2015-Sep-30 17:34N 47°40' W 122°23'0 0.0
2015-Sep-30 17:30N 47°40' W 122°23'0 0.0
2015-Sep-30 16:33N 47°40' W 122°23'0 0.0
2015-Sep-30 16:30N 47°40' W 122°23'0 0.0
2015-Sep-30 15:34N 47°40' W 122°23'0 0.0
2015-Sep-30 15:29N 47°40' W 122°23'0 0.3
2015-Sep-30 14:34N 47°40' W 122°23'0 0.0
2015-Sep-30 14:29N 47°40' W 122°23'0 0.0
2015-Sep-30 13:33N 47°40' W 122°23'0 0.0
2015-Sep-30 13:29N 47°40' W 122°23'0 0.0
2015-Sep-30 12:33N 47°40' W 122°23'0 0.0
2015-Sep-30 12:29N 47°40' W 122°23'0 0.0
2015-Sep-30 11:33N 47°40' W 122°23'0 0.0
2015-Sep-30 11:18N 47°40' W 122°23'0 0.0
2015-Sep-30 10:33N 47°40' W 122°23'0 0.0
2015-Sep-30 10:33N 47°40' W 122°23'0 0.0
2015-Sep-30 09:33N 47°40' W 122°23'0 0.0
2015-Sep-30 09:33N 47°40' W 122°23'0 0.0
2015-Sep-30 08:33N 47°40' W 122°23'0 0.0
2015-Sep-30 08:33N 47°40' W 122°23'0 0.0
2015-Sep-30 07:33N 47°40' W 122°23'0 0.0
2015-Sep-30 07:32N 47°40' W 122°23'0 0.0
2015-Sep-30 06:33N 47°40' W 122°23'0 0.0
2015-Sep-30 06:32N 47°40' W 122°23'0 0.0
2015-Sep-30 05:33N 47°40' W 122°23'0 0.0
2015-Sep-30 05:32N 47°40' W 122°23'0 0.0
2015-Sep-30 04:33N 47°40' W 122°23'0 0.0
2015-Sep-30 04:32N 47°40' W 122°23'0 0.0
2015-Sep-30 03:33N 47°40' W 122°23'0 0.2
2015-Sep-30 03:31N 47°40' W 122°23'0 0.0
2015-Sep-30 02:33N 47°40' W 122°23'0 0.2
2015-Sep-30 02:32N 47°40' W 122°23'0 0.0
2015-Sep-30 01:33N 47°40' W 122°23'0 0.0
2015-Sep-30 01:26N 47°40' W 122°23'0 0.0
2015-Sep-30 00:33N 47°40' W 122°23'0 0.0
2015-Sep-30 00:31N 47°40' W 122°23'0 0.0
2015-Sep-29 23:33N 47°40' W 122°23'0 0.1
2015-Sep-29 23:31N 47°40' W 122°23'0 0.0
2015-Sep-29 22:33N 47°40' W 122°23'0 0.0
2015-Sep-29 22:31N 47°40' W 122°23'0 0.0
2015-Sep-29 21:33N 47°40' W 122°23'0 0.0
2015-Sep-29 21:31N 47°40' W 122°23'0 0.0
2015-Sep-29 20:33N 47°40' W 122°23'0 0.1
2015-Sep-29 20:31N 47°40' W 122°23'0 0.0
2015-Sep-29 19:33N 47°40' W 122°23'0 0.0
2015-Sep-29 19:31N 47°40' W 122°23'0 0.0
2015-Sep-29 18:33N 47°40' W 122°23'0 0.1
2015-Sep-29 18:31N 47°40' W 122°23'0 0.0
2015-Sep-29 17:33N 47°40' W 122°23'0 0.0
2015-Sep-29 17:09N 47°40' W 122°23'0 0.0
2015-Sep-29 16:33N 47°40' W 122°23'0 0.0
2015-Sep-29 15:41N 47°40' W 122°23'0 0.0
2015-Sep-29 15:33N 47°40' W 122°23'0 0.0
2015-Sep-29 15:25N 47°40' W 122°23'0 0.0
2015-Sep-29 14:33N 47°40' W 122°23'0 0.0
2015-Sep-29 14:30N 47°40' W 122°23'0 0.0
2015-Sep-29 13:33N 47°40' W 122°23'0 0.0
2015-Sep-29 13:29N 47°40' W 122°23'0 0.0
2015-Sep-29 12:33N 47°40' W 122°23'0 0.0
2015-Sep-29 12:29N 47°40' W 122°23'0 0.0
2015-Sep-29 11:33N 47°40' W 122°23'0 0.0
2015-Sep-29 11:29N 47°40' W 122°23'0 0.0
2015-Sep-29 10:33N 47°40' W 122°23'0 0.0
2015-Sep-29 10:30N 47°40' W 122°23'0 0.0
2015-Sep-29 09:33N 47°40' W 122°23'0 0.0
2015-Sep-29 09:30N 47°40' W 122°23'0 0.0
2015-Sep-29 08:33N 47°40' W 122°23'0 0.0
2015-Sep-29 08:33N 47°40' W 122°23'0 0.0
2015-Sep-29 07:33N 47°40' W 122°23'0 0.0
2015-Sep-29 07:32N 47°40' W 122°23'0 0.0
2015-Sep-29 06:33N 47°40' W 122°23'0 0.0
2015-Sep-29 06:32N 47°40' W 122°23'0 0.0
2015-Sep-29 05:33N 47°40' W 122°23'0 0.0
2015-Sep-29 05:32N 47°40' W 122°23'0 0.0
2015-Sep-29 04:33N 47°40' W 122°23'0 0.0
2015-Sep-29 04:32N 47°40' W 122°23'0 0.0
2015-Sep-29 03:33N 47°40' W 122°23'0 0.0
2015-Sep-29 03:32N 47°40' W 122°23'0 0.0
2015-Sep-29 02:33N 47°40' W 122°23'0 0.0
2015-Sep-29 02:32N 47°40' W 122°23'0 0.0
2015-Sep-29 01:33N 47°40' W 122°23'0 0.0
2015-Sep-29 01:32N 47°40' W 122°23'0 0.0
2015-Sep-29 00:33N 47°40' W 122°23'0 0.0
2015-Sep-29 00:31N 47°40' W 122°23'0 0.0
2015-Sep-28 23:33N 47°40' W 122°23'0 0.0
2015-Sep-28 23:31N 47°40' W 122°23'0 0.0
2015-Sep-28 22:33N 47°40' W 122°23'0 0.0
2015-Sep-28 22:31N 47°40' W 122°23'0 0.0
2015-Sep-28 21:33N 47°40' W 122°23'0 0.0
2015-Sep-28 21:31N 47°40' W 122°23'0 0.0
2015-Sep-28 20:33N 47°40' W 122°23'0 0.0
2015-Sep-28 20:31N 47°40' W 122°23'0 0.0
2015-Sep-28 19:33N 47°40' W 122°23'0 0.0
2015-Sep-28 19:31N 47°40' W 122°23'0 0.0
2015-Sep-28 18:33N 47°40' W 122°23'0 0.2
2015-Sep-28 18:31N 47°40' W 122°23'0 0.0
2015-Sep-28 17:33N 47°40' W 122°23'0 0.0
2015-Sep-28 17:31N 47°40' W 122°23'0 0.0
2015-Sep-28 16:33N 47°40' W 122°23'0 0.0
2015-Sep-28 16:31N 47°40' W 122°23'0 0.0
2015-Sep-28 15:33N 47°40' W 122°23'0 0.0
2015-Sep-28 15:31N 47°40' W 122°23'0 0.0
2015-Sep-28 14:33N 47°40' W 122°23'0 0.0
2015-Sep-28 14:31N 47°40' W 122°23'0 0.0
2015-Sep-28 13:33N 47°40' W 122°23'0 0.0
2015-Sep-28 13:31N 47°40' W 122°23'0 0.0
2015-Sep-28 12:33N 47°40' W 122°23'0 0.0
2015-Sep-28 12:30N 47°40' W 122°23'0 0.0
2015-Sep-28 11:33N 47°40' W 122°23'0 0.0
2015-Sep-28 11:31N 47°40' W 122°23'0 0.0
2015-Sep-28 10:33N 47°40' W 122°23'0 0.0
2015-Sep-28 10:31N 47°40' W 122°23'0 0.0
2015-Sep-28 09:33N 47°40' W 122°23'0 0.0
2015-Sep-28 09:31N 47°40' W 122°23'0 0.0
2015-Sep-28 08:33N 47°40' W 122°23'0 0.0
2015-Sep-28 08:31N 47°40' W 122°23'0 0.0
2015-Sep-28 07:33N 47°40' W 122°23'0 0.0
2015-Sep-28 07:31N 47°40' W 122°23'0 0.0
2015-Sep-28 06:33N 47°40' W 122°23'0 0.0
2015-Sep-28 06:31N 47°40' W 122°23'0 0.0
2015-Sep-28 05:33N 47°40' W 122°23'0 0.0
2015-Sep-28 05:31N 47°40' W 122°23'0 0.0
2015-Sep-28 04:33N 47°40' W 122°23'0 0.0
2015-Sep-28 04:25N 47°40' W 122°23'0 0.0
2015-Sep-28 03:33N 47°40' W 122°23'0 0.0
2015-Sep-28 03:14N 47°40' W 122°23'0 0.0
2015-Sep-28 02:33N 47°40' W 122°23'0 0.0
2015-Sep-28 02:33N 47°40' W 122°23'0 0.0
2015-Sep-28 01:33N 47°40' W 122°23'0 0.0
2015-Sep-28 01:33N 47°40' W 122°23'0 0.0
2015-Sep-28 00:33N 47°40' W 122°23'0 0.0
2015-Sep-28 00:33N 47°40' W 122°23'0 0.0
2015-Sep-27 23:33N 47°40' W 122°23'0 0.0
2015-Sep-27 23:33N 47°40' W 122°23'0 0.0
2015-Sep-27 22:33N 47°40' W 122°23'0 0.0
2015-Sep-27 22:33N 47°40' W 122°23'0 0.0
2015-Sep-27 21:33N 47°40' W 122°23'0 0.0
2015-Sep-27 21:33N 47°40' W 122°23'0 0.0
2015-Sep-27 20:33N 47°40' W 122°23'0 0.0
2015-Sep-27 20:12N 47°40' W 122°23'0 0.0
2015-Sep-27 19:33N 47°40' W 122°23'0 0.0
2015-Sep-27 19:33N 47°40' W 122°23'0 0.0
2015-Sep-27 18:33N 47°40' W 122°23'0 0.0
2015-Sep-27 18:33N 47°40' W 122°23'0 0.0
2015-Sep-27 17:33N 47°40' W 122°23'0 0.0
2015-Sep-27 17:27N 47°40' W 122°23'0 0.0
2015-Sep-27 16:33N 47°40' W 122°23'0 0.0
2015-Sep-27 16:32N 47°40' W 122°23'0 0.0
2015-Sep-27 15:33N 47°40' W 122°23'0 0.0
2015-Sep-27 15:32N 47°40' W 122°23'0 0.0
2015-Sep-27 14:33N 47°40' W 122°23'0 0.0
2015-Sep-27 14:32N 47°40' W 122°23'0 0.0
2015-Sep-27 13:33N 47°40' W 122°23'0 0.0
2015-Sep-27 13:32N 47°40' W 122°23'0 0.0
2015-Sep-27 12:33N 47°40' W 122°23'0 0.0
2015-Sep-27 11:44N 47°40' W 122°23'0 0.0
2015-Sep-27 11:33N 47°40' W 122°23'0 0.0
2015-Sep-27 11:30N 47°40' W 122°23'0 0.0
2015-Sep-27 10:33N 47°40' W 122°23'0 0.0
2015-Sep-27 10:30N 47°40' W 122°23'0 0.0
2015-Sep-27 09:33N 47°40' W 122°23'0 0.0
2015-Sep-27 09:30N 47°40' W 122°23'0 0.0
2015-Sep-27 08:33N 47°40' W 122°23'0 0.0
2015-Sep-27 08:30N 47°40' W 122°23'0 0.0
2015-Sep-27 07:33N 47°40' W 122°23'0 0.0
2015-Sep-27 07:29N 47°40' W 122°23'0 0.0
2015-Sep-27 06:33N 47°40' W 122°23'0 0.0
2015-Sep-27 06:30N 47°40' W 122°23'0 0.0
2015-Sep-27 05:33N 47°40' W 122°23'0 0.1
2015-Sep-27 05:29N 47°40' W 122°23'0 0.0
2015-Sep-27 04:33N 47°40' W 122°23'0 0.0
2015-Sep-27 04:29N 47°40' W 122°23'0 0.0
2015-Sep-27 03:33N 47°40' W 122°23'0 0.1
2015-Sep-27 03:30N 47°40' W 122°23'0 0.0
2015-Sep-27 02:33N 47°40' W 122°23'0 0.0
2015-Sep-27 02:09N 47°40' W 122°23'0 0.0
2015-Sep-27 01:34N 47°40' W 122°23'0 0.0
2015-Sep-27 01:33N 47°40' W 122°23'0 0.0
2015-Sep-27 00:33N 47°40' W 122°23'0 0.0
2015-Sep-27 00:33N 47°40' W 122°23'0 0.0
2015-Sep-26 23:33N 47°40' W 122°23'0 0.0
2015-Sep-26 23:11N 47°40' W 122°23'0 0.0
2015-Sep-26 22:33N 47°40' W 122°23'0 0.2
2015-Sep-26 22:31N 47°40' W 122°23'0 0.0
2015-Sep-26 21:33N 47°40' W 122°23'0 0.0
2015-Sep-26 21:20N 47°40' W 122°23'0 0.0
2015-Sep-26 20:33N 47°40' W 122°23'0 0.0
2015-Sep-26 20:30N 47°40' W 122°23'0 0.0
2015-Sep-26 19:33N 47°40' W 122°23'0 0.0
2015-Sep-26 19:14N 47°40' W 122°23'0 0.0
2015-Sep-26 18:33N 47°40' W 122°23'0 0.0
2015-Sep-26 18:33N 47°40' W 122°23'0 0.0
2015-Sep-26 17:33N 47°40' W 122°23'0 0.0
2015-Sep-26 17:33N 47°40' W 122°23'0 0.0
2015-Sep-26 16:33N 47°40' W 122°23'0 0.0
2015-Sep-26 16:33N 47°40' W 122°23'0 0.0
2015-Sep-26 15:33N 47°40' W 122°23'0 0.0
2015-Sep-26 15:33N 47°40' W 122°23'0 0.0
2015-Sep-26 14:33N 47°40' W 122°23'0 0.0
2015-Sep-26 14:33N 47°40' W 122°23'0 0.0
2015-Sep-26 13:33N 47°40' W 122°23'0 0.0
2015-Sep-26 13:33N 47°40' W 122°23'0 0.0
2015-Sep-26 12:33N 47°40' W 122°23'0 0.0
2015-Sep-26 12:33N 47°40' W 122°23'0 0.0
2015-Sep-26 11:33N 47°40' W 122°23'0 0.0
2015-Sep-26 11:33N 47°40' W 122°23'0 0.0
2015-Sep-26 10:33N 47°40' W 122°23'0 0.0
2015-Sep-26 10:33N 47°40' W 122°23'0 0.0
2015-Sep-26 09:33N 47°40' W 122°23'0 0.0
2015-Sep-26 09:33N 47°40' W 122°23'0 0.0
2015-Sep-26 08:33N 47°40' W 122°23'0 0.0
2015-Sep-26 08:33N 47°40' W 122°23'0 0.0
2015-Sep-26 07:33N 47°40' W 122°23'0 0.0
2015-Sep-26 07:33N 47°40' W 122°23'0 0.0
2015-Sep-26 06:33N 47°40' W 122°23'0 0.0
2015-Sep-26 06:33N 47°40' W 122°23'0 0.0
2015-Sep-26 05:33N 47°40' W 122°23'0 0.0
2015-Sep-26 05:33N 47°40' W 122°23'0 0.0
2015-Sep-26 04:33N 47°40' W 122°23'0 0.0
2015-Sep-26 04:33N 47°40' W 122°23'0 0.0
2015-Sep-26 03:33N 47°40' W 122°23'0 0.0
2015-Sep-26 03:33N 47°40' W 122°23'0 0.0
2015-Sep-26 02:33N 47°40' W 122°23'0 0.0
2015-Sep-26 02:33N 47°40' W 122°23'0 0.0
2015-Sep-26 01:33N 47°40' W 122°23'0 0.6
2015-Sep-26 01:33N 47°40' W 122°23'0 0.0
2015-Sep-26 00:33N 47°40' W 122°23'0 0.0
2015-Sep-26 00:33N 47°40' W 122°23'0 0.0
2015-Sep-25 23:33N 47°40' W 122°23'0 0.0
2015-Sep-25 23:33N 47°40' W 122°23'0 0.0
2015-Sep-25 22:33N 47°40' W 122°23'0 0.6
2015-Sep-25 22:33N 47°40' W 122°23'0 0.0
2015-Sep-25 21:33N 47°40' W 122°23'0 0.0
2015-Sep-25 21:33N 47°40' W 122°23'0 0.0
2015-Sep-25 20:33N 47°40' W 122°23'0 0.0
2015-Sep-25 20:33N 47°40' W 122°23'0 0.0
2015-Sep-25 19:33N 47°40' W 122°23'0 0.0
2015-Sep-25 19:33N 47°40' W 122°23'0 0.0
2015-Sep-25 18:33N 47°40' W 122°23'0 0.0
2015-Sep-25 18:32N 47°40' W 122°23'0 0.0
2015-Sep-25 17:33N 47°40' W 122°23'0 0.0
2015-Sep-25 17:33N 47°40' W 122°23'0 0.0
2015-Sep-25 16:33N 47°40' W 122°23'0 0.0
2015-Sep-25 16:32N 47°40' W 122°23'0 0.0
2015-Sep-25 15:34N 47°40' W 122°23'0 0.0
2015-Sep-25 15:27N 47°40' W 122°23'0 0.0
2015-Sep-25 14:34N 47°40' W 122°23'0 0.0
2015-Sep-25 14:32N 47°40' W 122°23'0 0.0
2015-Sep-25 13:34N 47°40' W 122°23'0 0.0
2015-Sep-25 13:32N 47°40' W 122°23'0 0.0
2015-Sep-25 12:34N 47°40' W 122°23'0 0.2
2015-Sep-25 12:32N 47°40' W 122°23'0 0.0
2015-Sep-25 11:34N 47°40' W 122°23'0 0.0
2015-Sep-25 11:32N 47°40' W 122°23'0 0.0
2015-Sep-25 10:33N 47°40' W 122°23'0 0.0
2015-Sep-25 10:32N 47°40' W 122°23'0 0.0
2015-Sep-25 09:33N 47°40' W 122°23'0 0.0
2015-Sep-25 09:31N 47°40' W 122°23'0 0.0
2015-Sep-25 08:34N 47°40' W 122°23'0 0.0
2015-Sep-25 08:31N 47°40' W 122°23'0 0.0
2015-Sep-25 07:34N 47°40' W 122°23'0 0.1
2015-Sep-25 07:31N 47°40' W 122°23'0 0.0
2015-Sep-25 06:33N 47°40' W 122°23'0 0.0
2015-Sep-25 06:30N 47°40' W 122°23'0 0.0
2015-Sep-25 05:34N 47°40' W 122°23'0 0.0
2015-Sep-25 05:30N 47°40' W 122°23'0 0.0
2015-Sep-25 04:34N 47°40' W 122°23'0 0.0
2015-Sep-25 04:30N 47°40' W 122°23'0 0.0
2015-Sep-25 03:33N 47°40' W 122°23'0 0.1
2015-Sep-25 03:30N 47°40' W 122°23'0 0.0
2015-Sep-25 02:34N 47°40' W 122°23'0 0.0
2015-Sep-25 02:30N 47°40' W 122°23'0 0.0
2015-Sep-25 01:34N 47°40' W 122°23'0 0.1
2015-Sep-25 01:30N 47°40' W 122°23'0 0.0
2015-Sep-25 00:34N 47°40' W 122°23'0 0.0
2015-Sep-25 00:20N 47°40' W 122°23'0 0.0
2015-Sep-24 23:34N 47°40' W 122°23'0 0.0
2015-Sep-24 23:30N 47°40' W 122°23'0 0.0
2015-Sep-24 22:33N 47°40' W 122°23'0 0.1
2015-Sep-24 22:30N 47°40' W 122°23'0 0.0
2015-Sep-24 21:34N 47°40' W 122°23'0 0.0
2015-Sep-24 21:29N 47°40' W 122°23'0 0.0
2015-Sep-24 20:33N 47°40' W 122°23'0 0.0
2015-Sep-24 20:29N 47°40' W 122°23'0 0.0
2015-Sep-24 19:34N 47°40' W 122°23'0 0.0
2015-Sep-24 19:28N 47°40' W 122°23'0 0.0
2015-Sep-24 18:33N 47°40' W 122°23'0 0.0
2015-Sep-24 18:33N 47°40' W 122°23'0 0.0
2015-Sep-24 17:34N 47°40' W 122°23'0 0.0
2015-Sep-24 17:33N 47°40' W 122°23'0 0.0
2015-Sep-24 16:33N 47°40' W 122°23'0 0.0
2015-Sep-24 16:33N 47°40' W 122°23'0 0.0
2015-Sep-24 15:16N 47°40' W 122°23'0 0.0
2015-Sep-24 15:13N 47°40' W 122°23'0 0.0
2015-Sep-24 14:33N 47°40' W 122°23'0 0.0
2015-Sep-24 14:33N 47°40' W 122°23'0 0.0
2015-Sep-24 13:33N 47°40' W 122°23'0 0.1
2015-Sep-24 13:28N 47°40' W 122°23'0 0.0
2015-Sep-24 12:33N 47°40' W 122°23'0 0.0
2015-Sep-24 12:33N 47°40' W 122°23'0 0.0
2015-Sep-24 11:33N 47°40' W 122°23'0 0.0
2015-Sep-24 11:33N 47°40' W 122°23'0 0.0
2015-Sep-24 10:33N 47°40' W 122°23'0 0.0
2015-Sep-24 10:33N 47°40' W 122°23'0 0.0
2015-Sep-24 09:33N 47°40' W 122°23'0 0.0
2015-Sep-24 09:33N 47°40' W 122°23'0 0.0
2015-Sep-24 08:33N 47°40' W 122°23'0 0.0
2015-Sep-24 08:33N 47°40' W 122°23'0 0.0
2015-Sep-24 07:33N 47°40' W 122°23'0 0.0
2015-Sep-24 07:33N 47°40' W 122°23'0 0.0
2015-Sep-24 06:33N 47°40' W 122°23'0 0.0
2015-Sep-24 06:33N 47°40' W 122°23'0 0.0
2015-Sep-24 05:33N 47°40' W 122°23'0 0.0
2015-Sep-24 05:33N 47°40' W 122°23'0 0.0
2015-Sep-24 04:33N 47°40' W 122°23'0 0.0
2015-Sep-24 04:33N 47°40' W 122°23'0 0.0
2015-Sep-24 03:33N 47°40' W 122°23'0 0.0
2015-Sep-24 03:32N 47°40' W 122°23'0 0.0
2015-Sep-24 02:33N 47°40' W 122°23'0 0.0
2015-Sep-24 02:32N 47°40' W 122°23'0 0.0
2015-Sep-24 01:33N 47°40' W 122°23'0 0.1
2015-Sep-24 01:26N 47°40' W 122°23'0 0.0
2015-Sep-24 00:33N 47°40' W 122°23'0 0.1
2015-Sep-24 00:31N 47°40' W 122°23'0 0.0
2015-Sep-23 23:33N 47°40' W 122°23'0 0.0
2015-Sep-23 23:31N 47°40' W 122°23'0 0.0
2015-Sep-23 22:33N 47°40' W 122°23'0 0.0
2015-Sep-23 22:31N 47°40' W 122°23'0 0.0
2015-Sep-23 21:33N 47°40' W 122°23'0 0.0
2015-Sep-23 21:31N 47°40' W 122°23'0 0.0
2015-Sep-23 20:33N 47°40' W 122°23'0 0.0
2015-Sep-23 20:30N 47°40' W 122°23'0 0.0
2015-Sep-23 19:33N 47°40' W 122°23'0 0.0
2015-Sep-23 19:31N 47°40' W 122°23'0 0.0
2015-Sep-23 18:33N 47°40' W 122°23'0 0.0
2015-Sep-23 18:26N 47°40' W 122°23'0 0.0
2015-Sep-23 17:33N 47°40' W 122°23'0 0.0
2015-Sep-23 17:30N 47°40' W 122°23'0 0.0
2015-Sep-23 16:33N 47°40' W 122°23'0 0.0
2015-Sep-23 16:30N 47°40' W 122°23'0 0.0
2015-Sep-23 15:33N 47°40' W 122°23'0 0.0
2015-Sep-23 15:30N 47°40' W 122°23'0 0.0
2015-Sep-23 14:33N 47°40' W 122°23'0 0.0
2015-Sep-23 14:30N 47°40' W 122°23'0 0.0
2015-Sep-23 13:34N 47°40' W 122°23'0 0.0
2015-Sep-23 13:25N 47°40' W 122°23'0 0.0
2015-Sep-23 12:34N 47°40' W 122°23'0 0.0
2015-Sep-23 12:30N 47°40' W 122°23'0 0.0
2015-Sep-23 11:33N 47°40' W 122°23'0 0.0
2015-Sep-23 11:29N 47°40' W 122°23'0 0.0
2015-Sep-23 10:34N 47°40' W 122°23'0 0.0
2015-Sep-23 10:29N 47°40' W 122°23'0 0.0
2015-Sep-23 09:33N 47°40' W 122°23'0 0.0
2015-Sep-23 09:29N 47°40' W 122°23'0 0.0
2015-Sep-23 08:33N 47°40' W 122°23'0 0.0
2015-Sep-23 08:29N 47°40' W 122°23'0 0.0
2015-Sep-23 07:34N 47°40' W 122°23'0 0.0
2015-Sep-23 06:57N 47°40' W 122°23'0 0.0
2015-Sep-23 06:34N 47°40' W 122°23'0 0.0
2015-Sep-23 06:32N 47°40' W 122°23'0 0.0
2015-Sep-23 05:34N 47°40' W 122°23'0 0.0
2015-Sep-23 05:32N 47°40' W 122°23'0 0.0
2015-Sep-23 04:34N 47°40' W 122°23'0 0.0
2015-Sep-23 04:32N 47°40' W 122°23'0 0.0
2015-Sep-23 03:33N 47°40' W 122°23'0 0.0
2015-Sep-23 03:16N 47°40' W 122°23'0 0.0
2015-Sep-23 02:34N 47°40' W 122°23'0 0.0
2015-Sep-23 02:15N 47°40' W 122°23'0 0.0
2015-Sep-23 01:34N 47°40' W 122°23'0 0.1
2015-Sep-23 01:30N 47°40' W 122°23'0 0.0
2015-Sep-23 00:34N 47°40' W 122°23'0 0.0
2015-Sep-22 23:41N 47°40' W 122°23'0 0.0
2015-Sep-22 23:34N 47°40' W 122°23'0 0.0
2015-Sep-22 23:32N 47°40' W 122°23'0 0.0
2015-Sep-22 22:34N 47°40' W 122°23'0 0.0
2015-Sep-22 22:32N 47°40' W 122°23'0 0.0
2015-Sep-22 21:33N 47°40' W 122°23'0 0.0
2015-Sep-22 21:32N 47°40' W 122°23'0 0.0
2015-Sep-22 20:34N 47°40' W 122°23'0 0.0
2015-Sep-22 20:32N 47°40' W 122°23'  
Track history (hours):
 
Tides and Currents Weather Stations Pressure Air Temp Water Temp Dewpoint Dewpoint Depression Visibility Wind Speed Wind Dir Waves Ship Positions

Kevleen K

Owner: Kevleen K LLC, Edmonds, WA. More information available from US FCC via Universal Licensing System and Coast Guard Vessel Documentation Center.

Last reported at 2015-Oct-02 20:14 UTC. Time now 2016-Aug-24 16:15 UTC.
Position N 48°50' W 126°28'.
Warning: this ship's position is months out of date.

Length 32 m; draft 4.2 m.

Type: Fishing. MMSI: 367151060.

Date/timePositionNaut miles runAvg speedWind from/ knotsBaromVisibWave heightAir tempDewpointWater temp
2015-Oct-02 20:14N 48°50' W 126°28'5 5.9
2015-Oct-02 19:26N 48°48' W 126°21'6 6.3
2015-Oct-02 18:33N 48°46' W 126°14'7 7.4
2015-Oct-02 17:33N 48°42' W 126°04'8 8.0
2015-Oct-02 16:33N 48°39' W 125°53'8 8.0
2015-Oct-02 15:33N 48°35' W 125°42'9 8.5
2015-Oct-02 14:33N 48°33' W 125°30'10 9.3
2015-Oct-02 13:28N 48°32' W 125°14'66 9.6
2015-Oct-02 06:33N 48°17' W 123°38'411.9
2015-Oct-02 06:12N 48°15' W 123°31'711.1
2015-Oct-02 05:32N 48°14' W 123°21'411.2
2015-Oct-02 05:12N 48°13' W 123°15'710.6
2015-Oct-02 04:33N 48°13' W 123°05'1110.1
2015-Oct-02 03:27N 48°11' W 122°48'16 8.3
2015-Oct-02 01:33N 47°59' W 122°34'8 8.2
2015-Oct-02 00:33N 47°52' W 122°28'2 9.1
2015-Oct-02 00:22N 47°50' W 122°27'8 9.4
2015-Oct-01 23:33N 47°42' W 122°25'0 8.6
2015-Oct-01 23:32N 47°42' W 122°25'2 1.8
2015-Oct-01 22:33N 47°41' W 122°25'0 0.0
2015-Oct-01 22:31N 47°41' W 122°25'0 0.0
2015-Oct-01 21:33N 47°41' W 122°25'0 0.0
2015-Oct-01 21:31N 47°41' W 122°25'0 0.0
2015-Oct-01 20:33N 47°41' W 122°25'0 0.0
2015-Oct-01 20:31N 47°41' W 122°25'0 0.0
2015-Oct-01 19:33N 47°41' W 122°25'0 0.0
2015-Oct-01 19:31N 47°41' W 122°25'1 1.5
2015-Oct-01 18:33N 47°42' W 122°25'1 8.2
2015-Oct-01 18:26N 47°43' W 122°25'1 0.7
2015-Oct-01 17:33N 47°43' W 122°24'0 6.6
2015-Oct-01 17:31N 47°43' W 122°24'3 2.6
2015-Oct-01 16:33N 47°41' W 122°25'0 1.7
2015-Oct-01 16:31N 47°41' W 122°26'1 0.8
2015-Oct-01 15:33N 47°41' W 122°25'0 0.0
2015-Oct-01 15:31N 47°41' W 122°25'1 1.0
2015-Oct-01 14:33N 47°40' W 122°24'0 0.1
2015-Oct-01 14:31N 47°40' W 122°24'1 0.8
2015-Oct-01 13:33N 47°40' W 122°23'0 0.0
2015-Oct-01 13:31N 47°40' W 122°23'0 0.0
2015-Oct-01 12:33N 47°40' W 122°23'0 0.1
2015-Oct-01 12:31N 47°40' W 122°23'0 0.0
2015-Oct-01 11:33N 47°40' W 122°23'0 0.1
2015-Oct-01 11:31N 47°40' W 122°23'0 0.0
2015-Oct-01 10:33N 47°40' W 122°23'0 0.0
2015-Oct-01 10:13N 47°40' W 122°23'0 0.0
2015-Oct-01 09:33N 47°40' W 122°23'0 0.0
2015-Oct-01 09:33N 47°40' W 122°23'0 0.0
2015-Oct-01 08:33N 47°40' W 122°23'0 0.0
2015-Oct-01 08:33N 47°40' W 122°23'0 0.0
2015-Oct-01 07:33N 47°40' W 122°23'0 0.0
2015-Oct-01 07:33N 47°40' W 122°23'0 0.0
2015-Oct-01 06:33N 47°40' W 122°23'0 0.0
2015-Oct-01 06:33N 47°40' W 122°23'0 0.0
2015-Oct-01 05:33N 47°40' W 122°23'0 0.0
2015-Oct-01 05:33N 47°40' W 122°23'0 0.0
2015-Oct-01 04:33N 47°40' W 122°23'0 0.0
2015-Oct-01 04:32N 47°40' W 122°23'0 0.0
2015-Oct-01 03:33N 47°40' W 122°23'0 0.0
2015-Oct-01 03:32N 47°40' W 122°23'0 0.0
2015-Oct-01 02:33N 47°40' W 122°23'0 0.0
2015-Oct-01 02:32N 47°40' W 122°23'0 0.0
2015-Oct-01 01:33N 47°40' W 122°23'0 0.0
2015-Oct-01 01:32N 47°40' W 122°23'0 0.0
2015-Oct-01 00:33N 47°40' W 122°23'0 0.0
2015-Oct-01 00:32N 47°40' W 122°23'0 0.0
2015-Sep-30 23:33N 47°40' W 122°23'0 0.3
2015-Sep-30 23:32N 47°40' W 122°23'0 0.0
2015-Sep-30 22:34N 47°40' W 122°23'0 0.0
2015-Sep-30 22:31N 47°40' W 122°23'0 0.0
2015-Sep-30 21:33N 47°40' W 122°23'0 0.0
2015-Sep-30 21:31N 47°40' W 122°23'1 0.6
2015-Sep-30 20:33N 47°40' W 122°23'0 0.0
2015-Sep-30 20:32N 47°40' W 122°23'0 0.0
2015-Sep-30 19:33N 47°40' W 122°23'0 0.0
2015-Sep-30 19:31N 47°40' W 122°23'0 0.0
2015-Sep-30 18:34N 47°40' W 122°23'0 0.5
2015-Sep-30 18:05N 47°40' W 122°23'0 0.0
2015-Sep-30 17:34N 47°40' W 122°23'0 0.0
2015-Sep-30 17:30N 47°40' W 122°23'0 0.0
2015-Sep-30 16:33N 47°40' W 122°23'0 0.0
2015-Sep-30 16:30N 47°40' W 122°23'0 0.0
2015-Sep-30 15:34N 47°40' W 122°23'0 0.0
2015-Sep-30 15:29N 47°40' W 122°23'0 0.3
2015-Sep-30 14:34N 47°40' W 122°23'0 0.0
2015-Sep-30 14:29N 47°40' W 122°23'0 0.0
2015-Sep-30 13:33N 47°40' W 122°23'0 0.0
2015-Sep-30 13:29N 47°40' W 122°23'0 0.0
2015-Sep-30 12:33N 47°40' W 122°23'0 0.0
2015-Sep-30 12:29N 47°40' W 122°23'0 0.0
2015-Sep-30 11:33N 47°40' W 122°23'0 0.0
2015-Sep-30 11:18N 47°40' W 122°23'0 0.0
2015-Sep-30 10:33N 47°40' W 122°23'0 0.0
2015-Sep-30 10:33N 47°40' W 122°23'0 0.0
2015-Sep-30 09:33N 47°40' W 122°23'0 0.0
2015-Sep-30 09:33N 47°40' W 122°23'0 0.0
2015-Sep-30 08:33N 47°40' W 122°23'0 0.0
2015-Sep-30 08:33N 47°40' W 122°23'0 0.0
2015-Sep-30 07:33N 47°40' W 122°23'0 0.0
2015-Sep-30 07:32N 47°40' W 122°23'0 0.0
2015-Sep-30 06:33N 47°40' W 122°23'0 0.0
2015-Sep-30 06:32N 47°40' W 122°23'0 0.0
2015-Sep-30 05:33N 47°40' W 122°23'0 0.0
2015-Sep-30 05:32N 47°40' W 122°23'0 0.0
2015-Sep-30 04:33N 47°40' W 122°23'0 0.0
2015-Sep-30 04:32N 47°40' W 122°23'0 0.0
2015-Sep-30 03:33N 47°40' W 122°23'0 0.2
2015-Sep-30 03:31N 47°40' W 122°23'0 0.0
2015-Sep-30 02:33N 47°40' W 122°23'0 0.2
2015-Sep-30 02:32N 47°40' W 122°23'0 0.0
2015-Sep-30 01:33N 47°40' W 122°23'0 0.0
2015-Sep-30 01:26N 47°40' W 122°23'0 0.0
2015-Sep-30 00:33N 47°40' W 122°23'0 0.0
2015-Sep-30 00:31N 47°40' W 122°23'0 0.0
2015-Sep-29 23:33N 47°40' W 122°23'0 0.1
2015-Sep-29 23:31N 47°40' W 122°23'0 0.0
2015-Sep-29 22:33N 47°40' W 122°23'0 0.0
2015-Sep-29 22:31N 47°40' W 122°23'0 0.0
2015-Sep-29 21:33N 47°40' W 122°23'0 0.0
2015-Sep-29 21:31N 47°40' W 122°23'0 0.0
2015-Sep-29 20:33N 47°40' W 122°23'0 0.1
2015-Sep-29 20:31N 47°40' W 122°23'0 0.0
2015-Sep-29 19:33N 47°40' W 122°23'0 0.0
2015-Sep-29 19:31N 47°40' W 122°23'0 0.0
2015-Sep-29 18:33N 47°40' W 122°23'0 0.1
2015-Sep-29 18:31N 47°40' W 122°23'0 0.0
2015-Sep-29 17:33N 47°40' W 122°23'0 0.0
2015-Sep-29 17:09N 47°40' W 122°23'0 0.0
2015-Sep-29 16:33N 47°40' W 122°23'0 0.0
2015-Sep-29 15:41N 47°40' W 122°23'0 0.0
2015-Sep-29 15:33N 47°40' W 122°23'0 0.0
2015-Sep-29 15:25N 47°40' W 122°23'0 0.0
2015-Sep-29 14:33N 47°40' W 122°23'0 0.0
2015-Sep-29 14:30N 47°40' W 122°23'0 0.0
2015-Sep-29 13:33N 47°40' W 122°23'0 0.0
2015-Sep-29 13:29N 47°40' W 122°23'0 0.0
2015-Sep-29 12:33N 47°40' W 122°23'0 0.0
2015-Sep-29 12:29N 47°40' W 122°23'0 0.0
2015-Sep-29 11:33N 47°40' W 122°23'0 0.0
2015-Sep-29 11:29N 47°40' W 122°23'0 0.0
2015-Sep-29 10:33N 47°40' W 122°23'0 0.0
2015-Sep-29 10:30N 47°40' W 122°23'0 0.0
2015-Sep-29 09:33N 47°40' W 122°23'0 0.0
2015-Sep-29 09:30N 47°40' W 122°23'0 0.0
2015-Sep-29 08:33N 47°40' W 122°23'0 0.0
2015-Sep-29 08:33N 47°40' W 122°23'0 0.0
2015-Sep-29 07:33N 47°40' W 122°23'0 0.0
2015-Sep-29 07:32N 47°40' W 122°23'0 0.0
2015-Sep-29 06:33N 47°40' W 122°23'0 0.0
2015-Sep-29 06:32N 47°40' W 122°23'0 0.0
2015-Sep-29 05:33N 47°40' W 122°23'0 0.0
2015-Sep-29 05:32N 47°40' W 122°23'0 0.0
2015-Sep-29 04:33N 47°40' W 122°23'0 0.0
2015-Sep-29 04:32N 47°40' W 122°23'0 0.0
2015-Sep-29 03:33N 47°40' W 122°23'0 0.0
2015-Sep-29 03:32N 47°40' W 122°23'0 0.0
2015-Sep-29 02:33N 47°40' W 122°23'0 0.0
2015-Sep-29 02:32N 47°40' W 122°23'0 0.0
2015-Sep-29 01:33N 47°40' W 122°23'0 0.0
2015-Sep-29 01:32N 47°40' W 122°23'0 0.0
2015-Sep-29 00:33N 47°40' W 122°23'0 0.0
2015-Sep-29 00:31N 47°40' W 122°23'0 0.0
2015-Sep-28 23:33N 47°40' W 122°23'0 0.0
2015-Sep-28 23:31N 47°40' W 122°23'0 0.0
2015-Sep-28 22:33N 47°40' W 122°23'0 0.0
2015-Sep-28 22:31N 47°40' W 122°23'0 0.0
2015-Sep-28 21:33N 47°40' W 122°23'0 0.0
2015-Sep-28 21:31N 47°40' W 122°23'0 0.0
2015-Sep-28 20:33N 47°40' W 122°23'0 0.0
2015-Sep-28 20:31N 47°40' W 122°23'0 0.0
2015-Sep-28 19:33N 47°40' W 122°23'0 0.0
2015-Sep-28 19:31N 47°40' W 122°23'0 0.0
2015-Sep-28 18:33N 47°40' W 122°23'0 0.2
2015-Sep-28 18:31N 47°40' W 122°23'0 0.0
2015-Sep-28 17:33N 47°40' W 122°23'0 0.0
2015-Sep-28 17:31N 47°40' W 122°23'0 0.0
2015-Sep-28 16:33N 47°40' W 122°23'0 0.0
2015-Sep-28 16:31N 47°40' W 122°23'0 0.0
2015-Sep-28 15:33N 47°40' W 122°23'0 0.0
2015-Sep-28 15:31N 47°40' W 122°23'0 0.0
2015-Sep-28 14:33N 47°40' W 122°23'0 0.0
2015-Sep-28 14:31N 47°40' W 122°23'0 0.0
2015-Sep-28 13:33N 47°40' W 122°23'0 0.0
2015-Sep-28 13:31N 47°40' W 122°23'0 0.0
2015-Sep-28 12:33N 47°40' W 122°23'0 0.0
2015-Sep-28 12:30N 47°40' W 122°23'0 0.0
2015-Sep-28 11:33N 47°40' W 122°23'0 0.0
2015-Sep-28 11:31N 47°40' W 122°23'0 0.0
2015-Sep-28 10:33N 47°40' W 122°23'0 0.0
2015-Sep-28 10:31N 47°40' W 122°23'0 0.0
2015-Sep-28 09:33N 47°40' W 122°23'0 0.0
2015-Sep-28 09:31N 47°40' W 122°23'0 0.0
2015-Sep-28 08:33N 47°40' W 122°23'0 0.0
2015-Sep-28 08:31N 47°40' W 122°23'0 0.0
2015-Sep-28 07:33N 47°40' W 122°23'0 0.0
2015-Sep-28 07:31N 47°40' W 122°23'0 0.0
2015-Sep-28 06:33N 47°40' W 122°23'0 0.0
2015-Sep-28 06:31N 47°40' W 122°23'0 0.0
2015-Sep-28 05:33N 47°40' W 122°23'0 0.0
2015-Sep-28 05:31N 47°40' W 122°23'0 0.0
2015-Sep-28 04:33N 47°40' W 122°23'0 0.0
2015-Sep-28 04:25N 47°40' W 122°23'0 0.0
2015-Sep-28 03:33N 47°40' W 122°23'0 0.0
2015-Sep-28 03:14N 47°40' W 122°23'0 0.0
2015-Sep-28 02:33N 47°40' W 122°23'0 0.0
2015-Sep-28 02:33N 47°40' W 122°23'0 0.0
2015-Sep-28 01:33N 47°40' W 122°23'0 0.0
2015-Sep-28 01:33N 47°40' W 122°23'0 0.0
2015-Sep-28 00:33N 47°40' W 122°23'0 0.0
2015-Sep-28 00:33N 47°40' W 122°23'0 0.0
2015-Sep-27 23:33N 47°40' W 122°23'0 0.0
2015-Sep-27 23:33N 47°40' W 122°23'0 0.0
2015-Sep-27 22:33N 47°40' W 122°23'0 0.0
2015-Sep-27 22:33N 47°40' W 122°23'0 0.0
2015-Sep-27 21:33N 47°40' W 122°23'0 0.0
2015-Sep-27 21:33N 47°40' W 122°23'0 0.0
2015-Sep-27 20:33N 47°40' W 122°23'0 0.0
2015-Sep-27 20:12N 47°40' W 122°23'0 0.0
2015-Sep-27 19:33N 47°40' W 122°23'0 0.0
2015-Sep-27 19:33N 47°40' W 122°23'0 0.0
2015-Sep-27 18:33N 47°40' W 122°23'0 0.0
2015-Sep-27 18:33N 47°40' W 122°23'0 0.0
2015-Sep-27 17:33N 47°40' W 122°23'0 0.0
2015-Sep-27 17:27N 47°40' W 122°23'0 0.0
2015-Sep-27 16:33N 47°40' W 122°23'0 0.0
2015-Sep-27 16:32N 47°40' W 122°23'0 0.0
2015-Sep-27 15:33N 47°40' W 122°23'0 0.0
2015-Sep-27 15:32N 47°40' W 122°23'0 0.0
2015-Sep-27 14:33N 47°40' W 122°23'0 0.0
2015-Sep-27 14:32N 47°40' W 122°23'0 0.0
2015-Sep-27 13:33N 47°40' W 122°23'0 0.0
2015-Sep-27 13:32N 47°40' W 122°23'0 0.0
2015-Sep-27 12:33N 47°40' W 122°23'0 0.0
2015-Sep-27 11:44N 47°40' W 122°23'0 0.0
2015-Sep-27 11:33N 47°40' W 122°23'0 0.0
2015-Sep-27 11:30N 47°40' W 122°23'0 0.0
2015-Sep-27 10:33N 47°40' W 122°23'0 0.0
2015-Sep-27 10:30N 47°40' W 122°23'0 0.0
2015-Sep-27 09:33N 47°40' W 122°23'0 0.0
2015-Sep-27 09:30N 47°40' W 122°23'0 0.0
2015-Sep-27 08:33N 47°40' W 122°23'0 0.0
2015-Sep-27 08:30N 47°40' W 122°23'0 0.0
2015-Sep-27 07:33N 47°40' W 122°23'0 0.0
2015-Sep-27 07:29N 47°40' W 122°23'0 0.0
2015-Sep-27 06:33N 47°40' W 122°23'0 0.0
2015-Sep-27 06:30N 47°40' W 122°23'0 0.0
2015-Sep-27 05:33N 47°40' W 122°23'0 0.1
2015-Sep-27 05:29N 47°40' W 122°23'0 0.0
2015-Sep-27 04:33N 47°40' W 122°23'0 0.0
2015-Sep-27 04:29N 47°40' W 122°23'0 0.0
2015-Sep-27 03:33N 47°40' W 122°23'0 0.1
2015-Sep-27 03:30N 47°40' W 122°23'0 0.0
2015-Sep-27 02:33N 47°40' W 122°23'0 0.0
2015-Sep-27 02:09N 47°40' W 122°23'0 0.0
2015-Sep-27 01:34N 47°40' W 122°23'0 0.0
2015-Sep-27 01:33N 47°40' W 122°23'0 0.0
2015-Sep-27 00:33N 47°40' W 122°23'0 0.0
2015-Sep-27 00:33N 47°40' W 122°23'0 0.0
2015-Sep-26 23:33N 47°40' W 122°23'0 0.0
2015-Sep-26 23:11N 47°40' W 122°23'0 0.0
2015-Sep-26 22:33N 47°40' W 122°23'0 0.2
2015-Sep-26 22:31N 47°40' W 122°23'0 0.0
2015-Sep-26 21:33N 47°40' W 122°23'0 0.0
2015-Sep-26 21:20N 47°40' W 122°23'0 0.0
2015-Sep-26 20:33N 47°40' W 122°23'0 0.0
2015-Sep-26 20:30N 47°40' W 122°23'0 0.0
2015-Sep-26 19:33N 47°40' W 122°23'0 0.0
2015-Sep-26 19:14N 47°40' W 122°23'0 0.0
2015-Sep-26 18:33N 47°40' W 122°23'0 0.0
2015-Sep-26 18:33N 47°40' W 122°23'0 0.0
2015-Sep-26 17:33N 47°40' W 122°23'0 0.0
2015-Sep-26 17:33N 47°40' W 122°23'0 0.0
2015-Sep-26 16:33N 47°40' W 122°23'0 0.0
2015-Sep-26 16:33N 47°40' W 122°23'0 0.0
2015-Sep-26 15:33N 47°40' W 122°23'0 0.0
2015-Sep-26 15:33N 47°40' W 122°23'0 0.0
2015-Sep-26 14:33N 47°40' W 122°23'0 0.0
2015-Sep-26 14:33N 47°40' W 122°23'0 0.0
2015-Sep-26 13:33N 47°40' W 122°23'0 0.0
2015-Sep-26 13:33N 47°40' W 122°23'0 0.0
2015-Sep-26 12:33N 47°40' W 122°23'0 0.0
2015-Sep-26 12:33N 47°40' W 122°23'0 0.0
2015-Sep-26 11:33N 47°40' W 122°23'0 0.0
2015-Sep-26 11:33N 47°40' W 122°23'0 0.0
2015-Sep-26 10:33N 47°40' W 122°23'0 0.0
2015-Sep-26 10:33N 47°40' W 122°23'0 0.0
2015-Sep-26 09:33N 47°40' W 122°23'0 0.0
2015-Sep-26 09:33N 47°40' W 122°23'0 0.0
2015-Sep-26 08:33N 47°40' W 122°23'0 0.0
2015-Sep-26 08:33N 47°40' W 122°23'0 0.0
2015-Sep-26 07:33N 47°40' W 122°23'0 0.0
2015-Sep-26 07:33N 47°40' W 122°23'0 0.0
2015-Sep-26 06:33N 47°40' W 122°23'0 0.0
2015-Sep-26 06:33N 47°40' W 122°23'0 0.0
2015-Sep-26 05:33N 47°40' W 122°23'0 0.0
2015-Sep-26 05:33N 47°40' W 122°23'0 0.0
2015-Sep-26 04:33N 47°40' W 122°23'0 0.0
2015-Sep-26 04:33N 47°40' W 122°23'0 0.0
2015-Sep-26 03:33N 47°40' W 122°23'0 0.0
2015-Sep-26 03:33N 47°40' W 122°23'0 0.0
2015-Sep-26 02:33N 47°40' W 122°23'0 0.0
2015-Sep-26 02:33N 47°40' W 122°23'0 0.0
2015-Sep-26 01:33N 47°40' W 122°23'0 0.6
2015-Sep-26 01:33N 47°40' W 122°23'0 0.0
2015-Sep-26 00:33N 47°40' W 122°23'0 0.0
2015-Sep-26 00:33N 47°40' W 122°23'0 0.0
2015-Sep-25 23:33N 47°40' W 122°23'0 0.0
2015-Sep-25 23:33N 47°40' W 122°23'0 0.0
2015-Sep-25 22:33N 47°40' W 122°23'0 0.6
2015-Sep-25 22:33N 47°40' W 122°23'0 0.0
2015-Sep-25 21:33N 47°40' W 122°23'0 0.0
2015-Sep-25 21:33N 47°40' W 122°23'0 0.0
2015-Sep-25 20:33N 47°40' W 122°23'0 0.0
2015-Sep-25 20:33N 47°40' W 122°23'0 0.0
2015-Sep-25 19:33N 47°40' W 122°23'0 0.0
2015-Sep-25 19:33N 47°40' W 122°23'0 0.0
2015-Sep-25 18:33N 47°40' W 122°23'0 0.0
2015-Sep-25 18:32N 47°40' W 122°23'0 0.0
2015-Sep-25 17:33N 47°40' W 122°23'0 0.0
2015-Sep-25 17:33N 47°40' W 122°23'0 0.0
2015-Sep-25 16:33N 47°40' W 122°23'0 0.0
2015-Sep-25 16:32N 47°40' W 122°23'0 0.0
2015-Sep-25 15:34N 47°40' W 122°23'0 0.0
2015-Sep-25 15:27N 47°40' W 122°23'0 0.0
2015-Sep-25 14:34N 47°40' W 122°23'0 0.0
2015-Sep-25 14:32N 47°40' W 122°23'0 0.0
2015-Sep-25 13:34N 47°40' W 122°23'0 0.0
2015-Sep-25 13:32N 47°40' W 122°23'0 0.0
2015-Sep-25 12:34N 47°40' W 122°23'0 0.2
2015-Sep-25 12:32N 47°40' W 122°23'0 0.0
2015-Sep-25 11:34N 47°40' W 122°23'0 0.0
2015-Sep-25 11:32N 47°40' W 122°23'0 0.0
2015-Sep-25 10:33N 47°40' W 122°23'0 0.0
2015-Sep-25 10:32N 47°40' W 122°23'0 0.0
2015-Sep-25 09:33N 47°40' W 122°23'0 0.0
2015-Sep-25 09:31N 47°40' W 122°23'0 0.0
2015-Sep-25 08:34N 47°40' W 122°23'0 0.0
2015-Sep-25 08:31N 47°40' W 122°23'0 0.0
2015-Sep-25 07:34N 47°40' W 122°23'0 0.1
2015-Sep-25 07:31N 47°40' W 122°23'0 0.0
2015-Sep-25 06:33N 47°40' W 122°23'0 0.0
2015-Sep-25 06:30N 47°40' W 122°23'0 0.0
2015-Sep-25 05:34N 47°40' W 122°23'0 0.0
2015-Sep-25 05:30N 47°40' W 122°23'0 0.0
2015-Sep-25 04:34N 47°40' W 122°23'0 0.0
2015-Sep-25 04:30N 47°40' W 122°23'0 0.0
2015-Sep-25 03:33N 47°40' W 122°23'0 0.1
2015-Sep-25 03:30N 47°40' W 122°23'0 0.0
2015-Sep-25 02:34N 47°40' W 122°23'0 0.0
2015-Sep-25 02:30N 47°40' W 122°23'0 0.0
2015-Sep-25 01:34N 47°40' W 122°23'0 0.1
2015-Sep-25 01:30N 47°40' W 122°23'0 0.0
2015-Sep-25 00:34N 47°40' W 122°23'0 0.0
2015-Sep-25 00:20N 47°40' W 122°23'0 0.0
2015-Sep-24 23:34N 47°40' W 122°23'0 0.0
2015-Sep-24 23:30N 47°40' W 122°23'0 0.0
2015-Sep-24 22:33N 47°40' W 122°23'0 0.1
2015-Sep-24 22:30N 47°40' W 122°23'0 0.0
2015-Sep-24 21:34N 47°40' W 122°23'0 0.0
2015-Sep-24 21:29N 47°40' W 122°23'0 0.0
2015-Sep-24 20:33N 47°40' W 122°23'0 0.0
2015-Sep-24 20:29N 47°40' W 122°23'0 0.0
2015-Sep-24 19:34N 47°40' W 122°23'0 0.0
2015-Sep-24 19:28N 47°40' W 122°23'0 0.0
2015-Sep-24 18:33N 47°40' W 122°23'0 0.0
2015-Sep-24 18:33N 47°40' W 122°23'0 0.0
2015-Sep-24 17:34N 47°40' W 122°23'0 0.0
2015-Sep-24 17:33N 47°40' W 122°23'0 0.0
2015-Sep-24 16:33N 47°40' W 122°23'0 0.0
2015-Sep-24 16:33N 47°40' W 122°23'0 0.0
2015-Sep-24 15:16N 47°40' W 122°23'0 0.0
2015-Sep-24 15:13N 47°40' W 122°23'0 0.0
2015-Sep-24 14:33N 47°40' W 122°23'0 0.0
2015-Sep-24 14:33N 47°40' W 122°23'0 0.0
2015-Sep-24 13:33N 47°40' W 122°23'0 0.1
2015-Sep-24 13:28N 47°40' W 122°23'0 0.0
2015-Sep-24 12:33N 47°40' W 122°23'0 0.0
2015-Sep-24 12:33N 47°40' W 122°23'0 0.0
2015-Sep-24 11:33N 47°40' W 122°23'0 0.0
2015-Sep-24 11:33N 47°40' W 122°23'0 0.0
2015-Sep-24 10:33N 47°40' W 122°23'0 0.0
2015-Sep-24 10:33N 47°40' W 122°23'0 0.0
2015-Sep-24 09:33N 47°40' W 122°23'0 0.0
2015-Sep-24 09:33N 47°40' W 122°23'0 0.0
2015-Sep-24 08:33N 47°40' W 122°23'0 0.0
2015-Sep-24 08:33N 47°40' W 122°23'0 0.0
2015-Sep-24 07:33N 47°40' W 122°23'0 0.0
2015-Sep-24 07:33N 47°40' W 122°23'0 0.0
2015-Sep-24 06:33N 47°40' W 122°23'0 0.0
2015-Sep-24 06:33N 47°40' W 122°23'0 0.0
2015-Sep-24 05:33N 47°40' W 122°23'0 0.0
2015-Sep-24 05:33N 47°40' W 122°23'0 0.0
2015-Sep-24 04:33N 47°40' W 122°23'0 0.0
2015-Sep-24 04:33N 47°40' W 122°23'0 0.0
2015-Sep-24 03:33N 47°40' W 122°23'0 0.0
2015-Sep-24 03:32N 47°40' W 122°23'0 0.0
2015-Sep-24 02:33N 47°40' W 122°23'0 0.0
2015-Sep-24 02:32N 47°40' W 122°23'0 0.0
2015-Sep-24 01:33N 47°40' W 122°23'0 0.1
2015-Sep-24 01:26N 47°40' W 122°23'0 0.0
2015-Sep-24 00:33N 47°40' W 122°23'0 0.1
2015-Sep-24 00:31N 47°40' W 122°23'0 0.0
2015-Sep-23 23:33N 47°40' W 122°23'0 0.0
2015-Sep-23 23:31N 47°40' W 122°23'0 0.0
2015-Sep-23 22:33N 47°40' W 122°23'0 0.0
2015-Sep-23 22:31N 47°40' W 122°23'0 0.0
2015-Sep-23 21:33N 47°40' W 122°23'0 0.0
2015-Sep-23 21:31N 47°40' W 122°23'0 0.0
2015-Sep-23 20:33N 47°40' W 122°23'0 0.0
2015-Sep-23 20:30N 47°40' W 122°23'0 0.0
2015-Sep-23 19:33N 47°40' W 122°23'0 0.0
2015-Sep-23 19:31N 47°40' W 122°23'0 0.0
2015-Sep-23 18:33N 47°40' W 122°23'0 0.0
2015-Sep-23 18:26N 47°40' W 122°23'0 0.0
2015-Sep-23 17:33N 47°40' W 122°23'0 0.0
2015-Sep-23 17:30N 47°40' W 122°23'0 0.0
2015-Sep-23 16:33N 47°40' W 122°23'0 0.0
2015-Sep-23 16:30N 47°40' W 122°23'0 0.0
2015-Sep-23 15:33N 47°40' W 122°23'0 0.0
2015-Sep-23 15:30N 47°40' W 122°23'0 0.0
2015-Sep-23 14:33N 47°40' W 122°23'0 0.0
2015-Sep-23 14:30N 47°40' W 122°23'0 0.0
2015-Sep-23 13:34N 47°40' W 122°23'0 0.0
2015-Sep-23 13:25N 47°40' W 122°23'0 0.0
2015-Sep-23 12:34N 47°40' W 122°23'0 0.0
2015-Sep-23 12:30N 47°40' W 122°23'0 0.0
2015-Sep-23 11:33N 47°40' W 122°23'0 0.0
2015-Sep-23 11:29N 47°40' W 122°23'0 0.0
2015-Sep-23 10:34N 47°40' W 122°23'0 0.0
2015-Sep-23 10:29N 47°40' W 122°23'0 0.0
2015-Sep-23 09:33N 47°40' W 122°23'0 0.0
2015-Sep-23 09:29N 47°40' W 122°23'0 0.0
2015-Sep-23 08:33N 47°40' W 122°23'0 0.0
2015-Sep-23 08:29N 47°40' W 122°23'0 0.0
2015-Sep-23 07:34N 47°40' W 122°23'0 0.0
2015-Sep-23 06:57N 47°40' W 122°23'0 0.0
2015-Sep-23 06:34N 47°40' W 122°23'0 0.0
2015-Sep-23 06:32N 47°40' W 122°23'0 0.0
2015-Sep-23 05:34N 47°40' W 122°23'0 0.0
2015-Sep-23 05:32N 47°40' W 122°23'0 0.0
2015-Sep-23 04:34N 47°40' W 122°23'0 0.0
2015-Sep-23 04:32N 47°40' W 122°23'0 0.0
2015-Sep-23 03:33N 47°40' W 122°23'0 0.0
2015-Sep-23 03:16N 47°40' W 122°23'0 0.0
2015-Sep-23 02:34N 47°40' W 122°23'0 0.0
2015-Sep-23 02:15N 47°40' W 122°23'0 0.0
2015-Sep-23 01:34N 47°40' W 122°23'0 0.1
2015-Sep-23 01:30N 47°40' W 122°23'0 0.0
2015-Sep-23 00:34N 47°40' W 122°23'0 0.0
2015-Sep-22 23:41N 47°40' W 122°23'0 0.0
2015-Sep-22 23:34N 47°40' W 122°23'0 0.0
2015-Sep-22 23:32N 47°40' W 122°23'0 0.0
2015-Sep-22 22:34N 47°40' W 122°23'0 0.0
2015-Sep-22 22:32N 47°40' W 122°23'0 0.0
2015-Sep-22 21:33N 47°40' W 122°23'0 0.0
2015-Sep-22 21:32N 47°40' W 122°23'0 0.0
2015-Sep-22 20:34N 47°40' W 122°23'0 0.0
2015-Sep-22 20:32N 47°40' W 122°23'  

Dump ship's entire track history